createdAt,value
2017-12-30T00:01:50.098Z,6.20
2017-12-30T00:04:18.473Z,6.20
2017-12-30T00:06:46.119Z,6.20
2017-12-30T00:09:13.686Z,6.20
2017-12-30T00:11:41.328Z,6.20
2017-12-30T00:14:08.948Z,6.20
2017-12-30T00:16:36.561Z,6.20
2017-12-30T00:19:04.973Z,6.30
2017-12-30T00:21:32.583Z,6.20
2017-12-30T00:24:00.223Z,6.30
2017-12-30T00:26:27.841Z,6.30
2017-12-30T00:28:55.483Z,6.30
2017-12-30T00:31:23.111Z,6.30
2017-12-30T00:33:50.744Z,6.30
2017-12-30T00:36:18.352Z,6.20
2017-12-30T00:38:45.949Z,6.30
2017-12-30T00:41:13.563Z,6.30
2017-12-30T00:43:41.158Z,6.30
2017-12-30T00:46:09.558Z,6.30
2017-12-30T00:48:37.194Z,6.30
2017-12-30T00:51:05.534Z,6.40
2017-12-30T00:53:33.131Z,6.40
2017-12-30T00:56:01.474Z,6.40
2017-12-30T00:58:29.063Z,6.40
2017-12-30T01:00:57.448Z,6.30
2017-12-30T01:03:25.087Z,6.30
2017-12-30T01:05:53.436Z,6.40
2017-12-30T01:08:21.030Z,6.30
2017-12-30T01:10:49.365Z,6.40
2017-12-30T01:13:16.966Z,6.40
2017-12-30T01:15:45.302Z,6.40
2017-12-30T01:18:12.900Z,6.40
2017-12-30T01:20:41.277Z,6.40
2017-12-30T01:23:08.875Z,6.40
2017-12-30T01:25:36.473Z,6.30
2017-12-30T01:28:04.041Z,6.30
2017-12-30T01:30:31.671Z,6.30
2017-12-30T01:32:59.233Z,6.40
2017-12-30T01:35:26.825Z,6.40
2017-12-30T01:37:54.398Z,6.40
2017-12-30T01:40:21.996Z,6.40
2017-12-30T01:42:49.561Z,6.40
2017-12-30T01:45:17.153Z,6.40
2017-12-30T01:47:44.716Z,6.30
2017-12-30T01:50:12.307Z,6.30
2017-12-30T01:52:39.884Z,6.30
2017-12-30T01:55:08.246Z,6.20
2017-12-30T01:57:35.832Z,6.20
2017-12-30T02:00:03.427Z,6.30
2017-12-30T02:02:31.006Z,6.30
2017-12-30T02:04:59.358Z,6.20
2017-12-30T02:07:28.558Z,6.20
2017-12-30T02:09:56.149Z,6.20
2017-12-30T02:12:24.484Z,6.20
2017-12-30T02:14:52.083Z,6.20
2017-12-30T02:17:19.658Z,6.20
2017-12-30T02:19:47.252Z,6.20
2017-12-30T02:22:14.832Z,6.30
2017-12-30T02:24:42.425Z,6.30
2017-12-30T02:27:10.761Z,6.10
2017-12-30T02:29:38.393Z,6.10
2017-12-30T02:32:05.989Z,6.10
2017-12-30T02:34:33.594Z,6.10
2017-12-30T02:37:01.162Z,6.00
2017-12-30T02:39:28.734Z,6.00
2017-12-30T02:41:56.331Z,5.90
2017-12-30T02:44:23.904Z,5.80
2017-12-30T02:46:52.270Z,5.90
2017-12-30T02:49:19.846Z,5.80
2017-12-30T02:51:48.204Z,5.70
2017-12-30T02:54:15.775Z,5.70
2017-12-30T02:56:44.140Z,5.60
2017-12-30T02:59:11.719Z,5.60
2017-12-30T03:01:40.078Z,5.50
2017-12-30T03:04:07.663Z,5.40
2017-12-30T03:06:35.257Z,5.30
2017-12-30T03:09:02.864Z,5.20
2017-12-30T03:11:31.247Z,5.20
2017-12-30T03:13:58.813Z,5.20
2017-12-30T03:16:27.169Z,5.20
2017-12-30T03:18:54.746Z,5.20
2017-12-30T03:21:23.105Z,5.20
2017-12-30T03:23:50.679Z,5.20
2017-12-30T03:26:19.049Z,5.10
2017-12-30T03:28:46.631Z,5.10
2017-12-30T03:33:48.138Z,5.10
2017-12-30T03:36:15.733Z,5.00
2017-12-30T03:38:43.311Z,5.00
2017-12-30T03:41:10.916Z,5.00
2017-12-30T03:43:38.483Z,5.00
2017-12-30T03:46:06.086Z,5.00
2017-12-30T03:48:33.653Z,5.00
2017-12-30T03:51:01.253Z,5.00
2017-12-30T03:53:28.820Z,5.00
2017-12-30T03:55:56.413Z,5.10
2017-12-30T03:58:24.753Z,5.10
2017-12-30T04:00:52.331Z,5.10
2017-12-30T04:03:19.930Z,5.00
2017-12-30T04:05:47.522Z,5.00
2017-12-30T04:08:15.129Z,5.10
2017-12-30T04:10:43.213Z,5.10
2017-12-30T04:13:10.814Z,5.10
2017-12-30T04:15:38.433Z,5.20
2017-12-30T04:18:06.003Z,5.10
2017-12-30T04:20:33.583Z,5.10
2017-12-30T04:23:01.177Z,5.10
2017-12-30T04:25:28.741Z,5.20
2017-12-30T04:27:56.342Z,5.20
2017-12-30T04:30:23.922Z,5.20
2017-12-30T04:32:51.524Z,5.20
2017-12-30T04:35:19.863Z,5.30
2017-12-30T04:37:47.459Z,5.20
2017-12-30T04:40:15.028Z,5.30
2017-12-30T04:42:42.634Z,5.40
2017-12-30T04:45:10.794Z,5.30
2017-12-30T04:47:38.381Z,5.30
2017-12-30T04:50:05.940Z,5.30
2017-12-30T04:52:33.542Z,5.20
2017-12-30T04:55:01.881Z,5.30
2017-12-30T04:57:29.481Z,5.30
2017-12-30T04:59:57.063Z,5.30
2017-12-30T05:02:24.665Z,5.30
2017-12-30T05:04:53.029Z,5.20
2017-12-30T05:07:20.617Z,5.20
2017-12-30T05:09:48.185Z,5.30
2017-12-30T05:12:15.749Z,5.40
2017-12-30T05:14:44.102Z,5.50
2017-12-30T05:17:11.673Z,5.40
2017-12-30T05:19:39.265Z,5.50
2017-12-30T05:22:06.829Z,5.50
2017-12-30T05:24:34.427Z,5.60
2017-12-30T05:27:02.006Z,5.60
2017-12-30T05:29:29.628Z,5.60
2017-12-30T05:31:57.185Z,5.60
2017-12-30T05:34:24.793Z,5.70
2017-12-30T05:36:53.138Z,5.60
2017-12-30T05:39:20.729Z,5.60
2017-12-30T05:41:48.306Z,5.70
2017-12-30T05:44:15.905Z,5.70
2017-12-30T05:46:43.519Z,5.70
2017-12-30T05:49:11.108Z,5.70
2017-12-30T05:51:38.681Z,5.70
2017-12-30T05:54:06.283Z,5.70
2017-12-30T05:56:34.633Z,5.80
2017-12-30T05:59:02.225Z,5.80
2017-12-30T06:01:29.789Z,5.80
2017-12-30T06:03:57.385Z,5.80
2017-12-30T06:06:24.953Z,5.90
2017-12-30T06:08:52.540Z,5.90
2017-12-30T06:11:20.897Z,5.90
2017-12-30T06:13:48.491Z,5.80
2017-12-30T06:16:16.833Z,5.90
2017-12-30T06:18:44.425Z,5.90
2017-12-30T06:21:12.002Z,5.90
2017-12-30T06:23:40.378Z,5.90
2017-12-30T06:26:08.717Z,6.00
2017-12-30T06:28:36.285Z,6.00
2017-12-30T06:31:04.117Z,6.00
2017-12-30T06:33:31.700Z,6.00
2017-12-30T06:35:59.301Z,5.90
2017-12-30T06:38:26.878Z,5.90
2017-12-30T06:40:54.480Z,5.80
2017-12-30T06:43:22.050Z,5.90
2017-12-30T06:45:49.668Z,5.90
2017-12-30T06:48:17.244Z,6.00
2017-12-30T06:50:44.838Z,6.00
2017-12-30T06:53:13.185Z,5.90
2017-12-30T06:55:40.798Z,5.90
2017-12-30T06:58:08.369Z,5.70
2017-12-30T07:00:35.967Z,5.70
2017-12-30T07:03:03.612Z,5.80
2017-12-30T07:05:31.206Z,5.80
2017-12-30T07:07:58.785Z,5.80
2017-12-30T07:10:26.382Z,5.70
2017-12-30T07:12:53.952Z,5.70
2017-12-30T07:15:21.571Z,5.70
2017-12-30T07:17:49.137Z,5.70
2017-12-30T07:20:16.730Z,5.60
2017-12-30T07:22:44.313Z,5.70
2017-12-30T07:25:11.929Z,5.70
2017-12-30T07:27:39.505Z,5.70
2017-12-30T07:30:07.090Z,5.80
2017-12-30T07:32:34.661Z,5.80
2017-12-30T07:35:02.274Z,5.80
2017-12-30T07:37:29.852Z,5.90
2017-12-30T07:39:57.409Z,5.90
2017-12-30T07:42:25.002Z,5.90
2017-12-30T07:44:52.951Z,5.70
2017-12-30T07:47:20.538Z,5.70
2017-12-30T07:49:49.222Z,5.80
2017-12-30T07:52:16.854Z,5.80
2017-12-30T07:54:44.433Z,5.80
2017-12-30T07:57:12.795Z,5.90
2017-12-30T07:59:40.368Z,5.80
2017-12-30T08:02:08.733Z,5.90
2017-12-30T08:04:36.305Z,5.90
2017-12-30T08:07:03.912Z,5.90
2017-12-30T08:09:31.484Z,5.90
2017-12-30T08:11:59.086Z,6.00
2017-12-30T08:14:26.674Z,6.10
2017-12-30T08:16:54.273Z,6.20
2017-12-30T08:19:21.857Z,6.10
2017-12-30T08:21:49.448Z,6.10
2017-12-30T08:24:17.019Z,6.00
2017-12-30T08:26:44.614Z,6.00
2017-12-30T08:29:12.190Z,6.10
2017-12-30T08:31:39.793Z,6.10
2017-12-30T08:34:07.360Z,6.20
2017-12-30T08:36:34.956Z,6.20
2017-12-30T08:39:02.517Z,6.30
2017-12-30T08:41:30.107Z,6.30
2017-12-30T08:43:57.673Z,6.40
2017-12-30T08:46:25.333Z,6.60
2017-12-30T08:48:52.902Z,6.60
2017-12-30T08:51:20.481Z,6.60
2017-12-30T08:53:48.053Z,6.60
2017-12-30T08:56:15.618Z,6.70
2017-12-30T08:58:43.513Z,6.70
2017-12-30T09:01:11.131Z,6.70
2017-12-30T09:03:38.722Z,6.80
2017-12-30T09:06:06.369Z,6.80
2017-12-30T09:08:33.958Z,6.90
2017-12-30T09:11:01.517Z,6.90
2017-12-30T09:13:29.865Z,7.00
2017-12-30T09:15:57.429Z,6.90
2017-12-30T09:18:25.026Z,7.00
2017-12-30T09:20:52.601Z,7.10
2017-12-30T09:23:20.199Z,7.10
2017-12-30T09:25:47.811Z,7.10
2017-12-30T09:28:15.509Z,7.20
2017-12-30T09:30:43.154Z,7.30
2017-12-30T09:33:10.743Z,7.30
2017-12-30T09:35:38.318Z,7.40
2017-12-30T09:38:05.918Z,7.40
2017-12-30T09:40:33.491Z,7.40
2017-12-30T09:43:01.094Z,7.50
2017-12-30T09:45:28.662Z,7.40
2017-12-30T09:47:57.037Z,7.50
2017-12-30T09:50:25.378Z,7.60
2017-12-30T09:52:52.944Z,7.60
2017-12-30T09:55:20.537Z,7.60
2017-12-30T09:57:48.097Z,7.70
2017-12-30T10:00:16.458Z,7.70
2017-12-30T10:02:44.030Z,7.70
2017-12-30T10:05:12.401Z,7.90
2017-12-30T10:07:39.974Z,7.90
2017-12-30T10:10:07.570Z,7.90
2017-12-30T10:12:35.153Z,8.00
2017-12-30T10:15:02.998Z,8.00
2017-12-30T10:17:30.567Z,8.10
2017-12-30T10:19:58.172Z,8.20
2017-12-30T10:22:26.502Z,8.30
2017-12-30T10:24:54.086Z,8.30
2017-12-30T10:27:21.664Z,8.40
2017-12-30T10:29:49.257Z,8.40
2017-12-30T10:32:16.826Z,8.50
2017-12-30T10:34:44.419Z,8.60
2017-12-30T10:37:11.990Z,8.70
2017-12-30T10:39:39.685Z,8.70
2017-12-30T10:42:07.254Z,8.90
2017-12-30T10:44:34.852Z,8.90
2017-12-30T10:47:02.440Z,9.10
2017-12-30T10:49:30.773Z,9.20
2017-12-30T10:51:58.366Z,9.20
2017-12-30T10:54:25.929Z,9.40
2017-12-30T10:56:53.526Z,9.50
2017-12-30T10:59:21.096Z,9.70
2017-12-30T11:01:48.681Z,9.70
2017-12-30T11:04:16.255Z,9.70
2017-12-30T11:06:43.855Z,9.80
2017-12-30T11:09:11.435Z,9.90
2017-12-30T11:11:39.032Z,9.90
2017-12-30T11:14:06.609Z,10.00
2017-12-30T11:16:34.961Z,10.10
2017-12-30T11:19:02.534Z,10.10
2017-12-30T11:21:30.126Z,10.20
2017-12-30T11:23:57.705Z,10.20
2017-12-30T11:26:25.295Z,10.20
2017-12-30T11:28:52.884Z,10.30
2017-12-30T11:31:21.239Z,10.50
2017-12-30T11:33:48.819Z,10.50
2017-12-30T11:36:17.179Z,10.70
2017-12-30T11:38:45.017Z,10.70
2017-12-30T11:41:12.629Z,10.70
2017-12-30T11:43:41.053Z,10.80
2017-12-30T11:46:09.323Z,10.80
2017-12-30T11:48:37.402Z,10.90
2017-12-30T11:51:06.339Z,11.10
2017-12-30T11:53:34.606Z,11.10
2017-12-30T11:56:03.675Z,11.10
2017-12-30T11:58:33.097Z,11.20
2017-12-30T12:01:02.794Z,11.10
2017-12-30T12:03:32.935Z,11.10
2017-12-30T12:06:01.633Z,11.20
2017-12-30T12:08:29.245Z,11.20
2017-12-30T12:10:57.445Z,11.20
2017-12-30T12:13:25.790Z,11.20
2017-12-30T12:15:54.964Z,11.20
2017-12-30T12:18:24.038Z,11.20
2017-12-30T12:20:52.199Z,11.20
2017-12-30T12:23:20.667Z,11.20
2017-12-30T12:25:50.115Z,11.30
2017-12-30T12:28:19.243Z,11.40
2017-12-30T12:30:48.420Z,11.60
2017-12-30T12:33:18.643Z,11.60
2017-12-30T12:35:47.636Z,11.60
2017-12-30T12:38:17.387Z,11.70
2017-12-30T12:40:45.658Z,11.60
2017-12-30T12:43:13.664Z,11.70
2017-12-30T12:45:41.648Z,11.80
2017-12-30T12:48:10.547Z,11.80
2017-12-30T12:50:38.545Z,11.80
2017-12-30T12:53:06.941Z,11.90
2017-12-30T12:55:35.237Z,11.90
2017-12-30T12:58:03.390Z,11.90
2017-12-30T13:00:32.126Z,12.00
2017-12-30T13:03:00.187Z,12.00
2017-12-30T13:05:29.968Z,12.00
2017-12-30T13:07:58.142Z,12.20
2017-12-30T13:10:26.518Z,12.20
2017-12-30T13:12:54.578Z,12.20
2017-12-30T13:15:22.884Z,12.30
2017-12-30T13:17:50.993Z,12.30
2017-12-30T13:20:21.265Z,12.40
2017-12-30T13:22:49.687Z,12.30
2017-12-30T13:25:19.382Z,12.40
2017-12-30T13:27:48.843Z,12.40
2017-12-30T13:30:17.465Z,12.30
2017-12-30T13:32:48.135Z,12.30
2017-12-30T13:35:16.794Z,12.30
2017-12-30T13:37:45.561Z,12.20
2017-12-30T13:40:14.151Z,12.20
2017-12-30T13:42:42.237Z,12.20
2017-12-30T13:45:11.378Z,12.20
2017-12-30T13:47:39.542Z,12.20
2017-12-30T13:50:07.651Z,12.30
2017-12-30T13:52:35.726Z,12.30
2017-12-30T13:55:04.116Z,12.30
2017-12-30T13:57:32.720Z,12.30
2017-12-30T14:00:01.116Z,12.30
2017-12-30T14:02:29.339Z,12.40
2017-12-30T14:04:57.488Z,12.40
2017-12-30T14:07:25.647Z,12.30
2017-12-30T14:09:53.894Z,12.50
2017-12-30T14:12:22.814Z,12.40
2017-12-30T14:14:50.491Z,12.40
2017-12-30T14:17:18.072Z,12.40
2017-12-30T14:19:45.670Z,12.50
2017-12-30T14:22:13.237Z,12.50
2017-12-30T14:24:40.838Z,12.50
2017-12-30T14:27:08.417Z,12.50
2017-12-30T14:29:35.998Z,12.50
2017-12-30T14:32:03.643Z,12.60
2017-12-30T14:34:31.215Z,12.60
2017-12-30T14:36:58.808Z,12.60
2017-12-30T14:39:27.178Z,12.60
2017-12-30T14:41:54.815Z,12.60
2017-12-30T14:44:22.436Z,12.70
2017-12-30T14:46:50.039Z,12.70
2017-12-30T14:49:17.701Z,12.70
2017-12-30T14:51:45.358Z,12.70
2017-12-30T14:54:12.902Z,12.80
2017-12-30T14:56:40.502Z,12.80
2017-12-30T14:59:08.848Z,12.90
2017-12-30T15:01:36.449Z,12.80
2017-12-30T15:04:04.782Z,12.80
2017-12-30T15:06:32.396Z,12.70
2017-12-30T15:08:59.966Z,12.90
2017-12-30T15:11:27.573Z,12.80
2017-12-30T15:13:55.191Z,12.90
2017-12-30T15:16:22.844Z,12.90
2017-12-30T15:18:50.425Z,12.90
2017-12-30T15:21:18.001Z,12.90
2017-12-30T15:23:45.606Z,12.90
2017-12-30T15:26:13.946Z,12.90
2017-12-30T15:28:41.549Z,12.80
2017-12-30T15:31:09.117Z,12.90
2017-12-30T15:33:36.727Z,12.90
2017-12-30T15:36:04.314Z,13.00
2017-12-30T15:38:31.913Z,13.00
2017-12-30T15:40:59.541Z,13.00
2017-12-30T15:43:27.171Z,13.00
2017-12-30T15:45:54.754Z,13.00
2017-12-30T15:48:22.355Z,13.00
2017-12-30T15:50:49.933Z,13.00
2017-12-30T15:53:17.571Z,13.10
2017-12-30T15:55:45.910Z,13.10
2017-12-30T15:58:14.282Z,13.10
2017-12-30T16:00:42.809Z,13.20
2017-12-30T16:03:10.402Z,13.20
2017-12-30T16:05:37.974Z,13.20
2017-12-30T16:08:05.565Z,13.20
2017-12-30T16:10:33.143Z,13.20
2017-12-30T16:13:00.737Z,13.30
2017-12-30T16:15:28.300Z,13.20
2017-12-30T16:17:55.917Z,13.30
2017-12-30T16:20:23.496Z,13.20
2017-12-30T16:22:51.111Z,13.40
2017-12-30T16:25:19.454Z,13.30
2017-12-30T16:27:47.053Z,13.30
2017-12-30T16:30:14.629Z,13.40
2017-12-30T16:32:42.230Z,13.40
2017-12-30T16:35:10.462Z,13.40
2017-12-30T16:37:38.821Z,13.40
2017-12-30T16:40:06.422Z,13.30
2017-12-30T16:42:34.015Z,13.40
2017-12-30T16:45:01.610Z,13.40
2017-12-30T16:47:29.190Z,13.40
2017-12-30T16:49:56.785Z,13.50
2017-12-30T16:52:24.376Z,13.50
2017-12-30T16:54:51.978Z,13.60
2017-12-30T16:57:19.549Z,13.50
2017-12-30T16:59:47.152Z,13.60
2017-12-30T17:02:14.769Z,13.60
2017-12-30T17:04:42.366Z,13.60
2017-12-30T17:07:09.989Z,13.60
2017-12-30T17:09:37.594Z,13.60
2017-12-30T17:12:05.176Z,13.60
2017-12-30T17:14:32.819Z,13.60
2017-12-30T17:17:00.398Z,13.60
2017-12-30T17:19:27.988Z,13.60
2017-12-30T17:21:55.561Z,13.60
2017-12-30T17:24:23.170Z,13.60
2017-12-30T17:26:50.780Z,13.60
2017-12-30T17:29:18.431Z,13.60
2017-12-30T17:31:46.061Z,13.50
2017-12-30T17:34:13.668Z,13.50
2017-12-30T17:36:41.356Z,13.40
2017-12-30T17:39:09.740Z,13.50
2017-12-30T17:41:37.317Z,13.50
2017-12-30T17:44:04.947Z,13.40
2017-12-30T17:46:32.522Z,13.30
2017-12-30T17:49:00.147Z,13.20
2017-12-30T17:51:27.801Z,13.20
2017-12-30T17:53:55.384Z,13.30
2017-12-30T17:56:23.797Z,13.20
2017-12-30T17:58:51.421Z,13.20
2017-12-30T18:01:19.795Z,13.10
2017-12-30T18:03:48.132Z,13.10
2017-12-30T18:06:15.771Z,13.10
2017-12-30T18:08:43.345Z,13.10
2017-12-30T18:11:10.996Z,13.10
2017-12-30T18:13:38.570Z,13.10
2017-12-30T18:16:06.225Z,13.10
2017-12-30T18:18:33.842Z,13.10
2017-12-30T18:21:01.493Z,13.10
2017-12-30T18:23:29.883Z,13.20
2017-12-30T18:25:57.533Z,13.10
2017-12-30T18:28:25.154Z,13.20
2017-12-30T18:30:52.801Z,13.20
2017-12-30T18:33:20.429Z,13.20
2017-12-30T18:35:48.086Z,13.10
2017-12-30T18:38:15.702Z,13.20
2017-12-30T18:40:43.432Z,13.20
2017-12-30T18:43:11.046Z,13.30
2017-12-30T18:45:39.414Z,13.30
2017-12-30T18:48:07.042Z,13.20
2017-12-30T18:50:34.684Z,13.30
2017-12-30T18:53:02.289Z,13.30
2017-12-30T18:55:29.881Z,13.30
2017-12-30T18:57:57.540Z,13.30
2017-12-30T19:00:25.163Z,13.30
2017-12-30T19:02:52.814Z,13.30
2017-12-30T19:05:20.460Z,13.30
2017-12-30T19:07:48.108Z,13.40
2017-12-30T19:10:15.741Z,13.40
2017-12-30T19:12:43.401Z,13.40
2017-12-30T19:15:11.799Z,13.40
2017-12-30T19:17:39.439Z,13.40
2017-12-30T19:20:07.837Z,13.40
2017-12-30T19:22:35.513Z,13.40
2017-12-30T19:25:03.191Z,13.40
2017-12-30T19:27:30.844Z,13.40
2017-12-30T19:29:58.462Z,13.50
2017-12-30T19:32:26.105Z,13.40
2017-12-30T19:34:53.735Z,13.40
2017-12-30T19:37:21.395Z,13.40
2017-12-30T19:39:49.026Z,13.40
2017-12-30T19:42:16.678Z,13.40
2017-12-30T19:44:44.296Z,13.40
2017-12-30T19:47:11.941Z,13.40
2017-12-30T19:49:39.561Z,13.40
2017-12-30T19:52:07.200Z,13.30
2017-12-30T19:54:35.586Z,13.30
2017-12-30T19:57:03.308Z,13.30
2017-12-30T19:59:30.948Z,13.40
2017-12-30T20:01:58.603Z,13.30
2017-12-30T20:04:26.238Z,13.30
2017-12-30T20:06:53.865Z,13.30
2017-12-30T20:09:21.509Z,13.30
2017-12-30T20:11:49.862Z,13.30
2017-12-30T20:14:18.912Z,13.30
2017-12-30T20:16:47.002Z,13.30
2017-12-30T20:19:15.644Z,13.40
2017-12-30T20:21:44.065Z,13.30
2017-12-30T20:24:11.762Z,13.30
2017-12-30T20:26:39.435Z,13.30
2017-12-30T20:29:07.073Z,13.40
2017-12-30T20:31:34.715Z,13.40
2017-12-30T20:34:02.369Z,13.40
2017-12-30T20:36:29.988Z,13.40
2017-12-30T20:38:58.121Z,13.40
2017-12-30T20:41:27.658Z,13.40
2017-12-30T20:43:55.377Z,13.40
2017-12-30T20:46:23.029Z,13.50
2017-12-30T20:48:50.681Z,13.50
2017-12-30T20:51:18.321Z,13.50
2017-12-30T20:53:45.976Z,13.50
2017-12-30T20:56:13.601Z,13.50
2017-12-30T20:58:41.249Z,13.50
2017-12-30T21:01:08.875Z,13.50
2017-12-30T21:03:36.518Z,13.50
2017-12-30T21:06:04.157Z,13.50
2017-12-30T21:08:31.910Z,13.50
2017-12-30T21:10:59.536Z,13.50
2017-12-30T21:13:27.177Z,13.50
2017-12-30T21:15:55.573Z,13.50
2017-12-30T21:18:23.206Z,13.40
2017-12-30T21:20:51.075Z,13.40
2017-12-30T21:23:19.481Z,13.40
2017-12-30T21:25:47.129Z,13.40
2017-12-30T21:28:15.517Z,13.40
2017-12-30T21:30:43.162Z,13.30
2017-12-30T21:33:10.798Z,13.40
2017-12-30T21:35:38.449Z,13.40
2017-12-30T21:38:06.124Z,13.40
2017-12-30T21:40:33.783Z,13.40
2017-12-30T21:43:01.407Z,13.30
2017-12-30T21:45:29.065Z,13.30
2017-12-30T21:47:56.782Z,13.30
2017-12-30T21:50:25.193Z,13.40
2017-12-30T21:52:52.808Z,13.30
2017-12-30T21:55:23.834Z,13.40
2017-12-30T21:57:58.003Z,13.40
2017-12-30T22:00:29.186Z,13.40
2017-12-30T22:02:56.965Z,13.40
2017-12-30T22:05:30.745Z,13.40
2017-12-30T22:07:58.374Z,13.40
2017-12-30T22:10:30.447Z,13.40
2017-12-30T22:13:01.546Z,13.40
2017-12-30T22:15:29.197Z,13.30
2017-12-30T22:17:57.405Z,13.30
2017-12-30T22:20:25.054Z,13.30
2017-12-30T22:22:53.444Z,13.40
2017-12-30T22:25:21.121Z,13.30
2017-12-30T22:27:48.754Z,13.40
2017-12-30T22:30:17.165Z,13.40
2017-12-30T22:32:44.793Z,13.40
2017-12-30T22:35:13.213Z,13.40
2017-12-30T22:37:40.862Z,13.40
2017-12-30T22:40:08.555Z,13.40
2017-12-30T22:42:36.182Z,13.40
2017-12-30T22:45:03.813Z,13.40
2017-12-30T22:47:31.490Z,13.40
2017-12-30T22:49:59.880Z,13.40
2017-12-30T22:52:27.556Z,13.40
2017-12-30T22:54:55.968Z,13.50
2017-12-30T22:57:24.645Z,13.50
2017-12-30T22:59:52.280Z,13.40
2017-12-30T23:02:19.921Z,13.50
2017-12-30T23:04:47.606Z,13.50
2017-12-30T23:07:15.251Z,13.50
2017-12-30T23:09:42.870Z,13.50
2017-12-30T23:12:11.294Z,13.50
2017-12-30T23:14:38.927Z,13.50
2017-12-30T23:17:06.581Z,13.50
2017-12-30T23:19:34.199Z,13.50
2017-12-30T23:22:01.861Z,13.50
2017-12-30T23:24:29.486Z,13.60
2017-12-30T23:26:57.182Z,13.50
2017-12-30T23:29:24.809Z,13.50
2017-12-30T23:31:53.247Z,13.50
2017-12-30T23:34:21.643Z,13.60
2017-12-30T23:36:50.053Z,13.60
2017-12-30T23:39:17.671Z,13.60
2017-12-30T23:41:46.085Z,13.60
2017-12-30T23:44:13.721Z,13.60
2017-12-30T23:46:42.189Z,13.60
2017-12-30T23:49:09.834Z,13.50
2017-12-30T23:51:37.486Z,13.60
2017-12-30T23:54:05.150Z,13.60
2017-12-30T23:56:32.798Z,13.50
2017-12-30T23:59:00.435Z,13.50
